Time;durP1;ratioP1;P1;durP2;ratioP2;P2;SDS_P1;SDS_P2;PMS_P1;PMS_P2;Temp;Humidity;BMP_temperature;BMP_pressure;BME280_temperature;BME280_humidity;BME280_pressure;Samples;Min_cycle;Max_cycle;Signal;HPM_P1;HPM_P2
2023/10/08 06:47:23;;;;;;;2.03;1.15;;;;;;;6.22;61.84;96390.44;5886972;23;20384;-88
2023/10/08 06:49:51;;;;;;;1.70;1.00;;;;;;;6.09;60.88;96390.59;4908007;29;20099;-86
2023/10/08 06:52:26;;;;;;;5.10;1.02;;;;;;;6.41;61.57;96417.59;4894558;29;20065;-89
2023/10/08 06:54:55;;;;;;;2.00;1.20;;;;;;;6.20;60.99;96390.81;4906172;29;20051;-87
2023/10/08 06:57:21;;;;;;;5.55;1.35;;;;;;;6.18;61.74;96362.47;4913714;29;20082;-86
2023/10/08 06:59:50;;;;;;;3.15;1.40;;;;;;;6.18;60.89;96370.59;4909116;29;20599;-87
2023/10/08 07:02:17;;;;;;;9.20;1.42;;;;;;;6.52;61.49;96424.03;4913920;29;20424;-85
2023/10/08 07:04:46;;;;;;;1.90;0.80;;;;;;;6.16;61.50;96395.38;4909221;29;20119;-85
2023/10/08 07:07:18;;;;;;;1.85;1.20;;;;;;;5.75;62.17;96332.50;4895082;29;20089;-87
2023/10/08 07:09:44;;;;;;;2.05;1.20;;;;;;;5.93;62.16;96361.94;4910436;29;20131;-86
2023/10/08 07:12:14;;;;;;;1.63;1.20;;;;;;;6.45;63.00;96444.78;4917097;29;20116;-85
2023/10/08 07:14:43;;;;;;;2.15;1.30;;;;;;;6.42;63.83;96429.22;4919945;29;20040;-85
2023/10/08 07:17:12;;;;;;;7.28;1.50;;;;;;;6.29;61.96;96409.56;4887769;29;20044;-84
2023/10/08 07:19:39;;;;;;;1.23;0.95;;;;;;;5.99;61.35;96364.03;4890980;29;20071;-85
2023/10/08 07:22:28;;;;;;;1.65;1.00;;;;;;;6.40;61.51;96429.59;4913239;29;20059;-83
2023/10/08 07:24:54;;;;;;;2.28;1.27;;;;;;;6.31;61.70;96418.94;4907428;29;20040;-83
2023/10/08 07:27:31;;;;;;;2.05;1.20;;;;;;;6.48;62.31;96457.66;4904385;29;20066;-85
2023/10/08 07:30:01;;;;;;;4.28;1.10;;;;;;;6.20;61.47;96422.59;4901860;29;20502;-89
2023/10/08 07:32:30;;;;;;;2.60;1.17;;;;;;;5.96;63.16;96385.63;4921014;29;20442;-88
2023/10/08 07:35:16;;;;;;;6.03;0.80;;;;;;;5.85;62.85;96394.28;4917601;29;20056;-85
2023/10/08 07:37:43;;;;;;;2.43;1.20;;;;;;;6.18;63.16;96432.97;4920439;29;20429;-84
2023/10/08 07:40:11;;;;;;;4.78;1.10;;;;;;;6.32;61.79;96457.69;4919026;29;20048;-84
2023/10/08 07:42:37;;;;;;;4.22;1.10;;;;;;;6.31;63.23;96454.19;4920623;29;20044;-87
2023/10/08 07:45:05;;;;;;;2.83;1.25;;;;;;;6.13;64.67;96433.28;4921320;29;20048;-83
2023/10/08 07:47:31;;;;;;;5.07;1.45;;;;;;;6.14;65.90;96451.13;4918473;29;20044;-82
2023/10/08 07:49:58;;;;;;;7.63;1.40;;;;;;;6.01;66.41;96432.25;4913156;29;20041;-82
2023/10/08 07:52:26;;;;;;;2.25;1.13;;;;;;;6.04;65.02;96436.19;4913635;29;20040;-89
2023/10/08 07:54:53;;;;;;;3.35;1.50;;;;;;;5.96;65.93;96413.56;4916088;29;20044;-87
2023/10/08 07:57:25;;;;;;;3.13;1.60;;;;;;;6.30;66.47;96443.72;4901255;29;20041;-83
2023/10/08 07:59:54;;;;;;;2.90;1.15;;;;;;;6.31;65.11;96470.47;4890520;29;20145;-86
2023/10/08 08:02:23;;;;;;;5.63;1.50;;;;;;;5.94;65.83;96437.50;4909788;29;20071;-84
2023/10/08 08:04:56;;;;;;;3.85;2.35;;;;;;;6.08;66.32;96477.69;4904035;29;20139;-89
2023/10/08 08:07:24;;;;;;;8.57;4.00;;;;;;;5.85;66.91;96443.06;4896647;29;20158;-86
2023/10/08 08:09:52;;;;;;;4.63;1.45;;;;;;;6.01;66.54;96478.31;4918900;29;21041;-83
2023/10/08 08:12:21;;;;;;;9.75;1.60;;;;;;;6.47;66.59;96475.84;4913282;29;20043;-87
2023/10/08 08:14:48;;;;;;;4.07;1.50;;;;;;;6.33;65.28;96481.00;4885274;29;20041;-84
2023/10/08 08:17:17;;;;;;;1.65;1.30;;;;;;;6.16;65.34;96486.78;4905559;29;20052;-83
2023/10/08 08:19:48;;;;;;;2.65;1.52;;;;;;;6.07;64.56;96500.53;4885120;29;20147;-82
2023/10/08 08:22:21;;;;;;;2.13;1.40;;;;;;;5.72;64.61;96441.59;4905065;29;20059;-88
2023/10/08 08:25:15;;;;;;;2.78;1.20;;;;;;;6.05;64.53;96498.16;4908324;29;20044;-86
2023/10/08 08:27:54;;;;;;;3.03;1.50;;;;;;;5.81;63.92;96452.28;4910528;29;20060;-87
2023/10/08 08:30:26;;;;;;;2.45;1.40;;;;;;;5.38;64.55;96365.34;4925763;29;20131;-86
2023/10/08 08:32:56;;;;;;;2.38;1.30;;;;;;;6.08;62.84;96492.03;4908394;29;20104;-84
2023/10/08 08:35:28;;;;;;;3.22;1.40;;;;;;;5.84;63.10;96449.66;4897880;29;20040;-85
2023/10/08 08:37:54;;;;;;;8.32;1.20;;;;;;;6.10;62.73;96497.13;4916338;29;20642;-88
2023/10/08 08:40:24;;;;;;;6.20;1.42;;;;;;;5.70;63.01;96416.03;4911333;29;20541;-87
2023/10/08 08:42:58;;;;;;;3.22;1.20;;;;;;;6.16;61.86;96505.75;4912423;29;20108;-90
2023/10/08 08:45:24;;;;;;;2.40;1.00;;;;;;;6.04;61.41;96474.91;4897248;29;20598;-86
2023/10/08 08:47:51;;;;;;;2.58;1.40;;;;;;;6.06;61.45;96455.56;4909111;29;20091;-87
2023/10/08 08:50:19;;;;;;;2.83;1.48;;;;;;;6.05;60.67;96462.13;4915428;29;20051;-87
2023/10/08 08:52:48;;;;;;;6.90;1.43;;;;;;;6.42;61.59;96499.75;4911235;29;20044;-83
2023/10/08 08:55:14;;;;;;;3.53;1.10;;;;;;;6.29;59.97;96475.47;4902504;29;20047;-86
2023/10/08 08:57:49;;;;;;;;;;;;;;;6.53;60.95;96503.50;4907464;29;20040;-87
2023/10/08 09:00:29;;;;;;;6.53;1.50;;;;;;;6.04;59.78;96434.25;4924724;29;19998;-85
2023/10/08 09:03:07;;;;;;;3.00;1.67;;;;;;;6.23;60.18;96460.63;4912694;29;20057;-87
2023/10/08 09:05:59;;;;;;;2.85;1.50;;;;;;;6.63;59.66;96505.66;4902872;29;20044;-85
2023/10/08 09:08:31;;;;;;;11.20;1.63;;;;;;;6.29;60.52;96445.66;4915155;29;20044;-85
2023/10/08 09:11:00;;;;;;;1.75;1.00;;;;;;;6.71;59.12;96531.00;4891664;29;20072;-86
2023/10/08 09:13:28;;;;;;;2.03;1.00;;;;;;;6.34;59.34;96467.06;4910755;29;20044;-85
2023/10/08 09:16:22;;;;;;;4.25;1.30;;;;;;;6.51;60.96;96487.56;4918750;29;20058;-84
2023/10/08 09:18:52;;;;;;;1.70;1.30;;;;;;;6.35;58.70;96457.75;4917832;29;20615;-86
2023/10/08 09:21:22;;;;;;;2.60;1.40;;;;;;;6.72;59.24;96505.44;4914009;29;20048;-89
2023/10/08 09:24:11;;;;;;;3.97;1.15;;;;;;;6.73;58.97;96542.31;4909277;29;20021;-89
2023/10/08 09:26:39;;;;;;;4.65;1.77;;;;;;;6.02;59.86;96460.91;4905977;29;20051;-86
2023/10/08 09:29:17;;;;;;;6.53;1.48;;;;;;;5.96;60.46;96442.56;4906435;29;20045;-85
2023/10/08 09:31:55;;;;;;;5.88;2.15;;;;;;;6.56;60.78;96530.72;4919642;29;20044;-86
2023/10/08 09:34:26;;;;;;;4.93;1.67;;;;;;;6.24;61.03;96492.03;4925109;29;20067;-87
2023/10/08 09:36:59;;;;;;;2.30;1.00;;;;;;;6.38;59.84;96505.09;4873689;29;20052;-88
2023/10/08 09:39:36;;;;;;;7.95;2.13;;;;;;;6.50;59.82;96542.97;4908699;29;20068;-85
2023/10/08 09:42:06;;;;;;;5.50;1.50;;;;;;;6.46;59.45;96538.63;4924597;29;20043;-83
2023/10/08 09:44:32;;;;;;;4.68;1.60;;;;;;;6.08;59.78;96486.63;4903840;29;20037;-85
2023/10/08 09:47:12;;;;;;;8.40;2.27;;;;;;;6.49;59.39;96532.47;4908114;29;20131;-87
2023/10/08 09:50:08;;;;;;;15.07;1.67;;;;;;;6.65;58.54;96535.91;4925219;29;20354;-85
2023/10/08 09:52:56;;;;;;;8.63;1.70;;;;;;;6.65;59.05;96533.22;4879891;29;20054;-85
2023/10/08 09:55:25;;;;;;;3.65;1.58;;;;;;;6.48;58.50;96533.63;4864445;29;20049;-86
2023/10/08 09:57:55;;;;;;;2.60;1.35;;;;;;;6.53;58.90;96534.13;4862760;29;20037;-82
2023/10/08 10:00:30;;;;;;;3.78;1.70;;;;;;;6.48;58.91;96542.53;4866734;29;20045;-87
2023/10/08 10:03:07;;;;;;;1.58;1.08;;;;;;;6.39;59.13;96544.69;4861810;29;20053;-88
2023/10/08 10:05:36;;;;;;;3.85;1.80;;;;;;;6.38;59.51;96553.16;4843562;29;20056;-85
2023/10/08 10:08:09;;;;;;;4.05;2.00;;;;;;;6.16;60.79;96527.47;4815869;29;20077;-84
2023/10/08 10:10:38;;;;;;;2.42;1.35;;;;;;;6.22;60.50;96545.81;4862507;29;20045;-84
2023/10/08 10:13:08;;;;;;;6.13;1.30;;;;;;;5.98;60.90;96508.84;4876800;29;20053;-83
2023/10/08 10:15:44;;;;;;;2.05;1.17;;;;;;;6.10;61.22;96543.22;4874504;29;20045;-85
2023/10/08 10:18:18;;;;;;;2.65;1.00;;;;;;;6.11;61.24;96559.13;4862355;29;20048;-85
2023/10/08 10:20:53;;;;;;;2.05;1.05;;;;;;;5.95;62.74;96541.31;4860577;29;20045;-86
2023/10/08 10:23:37;;;;;;;5.00;1.42;;;;;;;6.11;63.81;96572.69;4840123;29;20573;-85
2023/10/08 10:26:05;;;;;;;3.40;1.10;;;;;;;5.90;66.23;96547.75;4858072;29;20052;-85
2023/10/08 10:28:33;;;;;;;1.73;1.23;;;;;;;5.95;65.58;96569.19;4852568;29;20053;-84
2023/10/08 10:31:00;;;;;;;3.47;1.45;;;;;;;5.59;66.90;96508.66;4841218;29;20041;-83
2023/10/08 10:33:31;;;;;;;5.38;1.15;;;;;;;5.91;66.19;96556.69;4854599;29;20037;-84
2023/10/08 10:35:57;;;;;;;4.28;1.92;;;;;;;5.64;65.96;96538.22;4857333;29;20087;-85
2023/10/08 10:38:26;;;;;;;1.13;1.02;;;;;;;5.87;65.88;96545.75;4905159;29;20218;-86
2023/10/08 10:40:58;;;;;;;1.65;1.10;;;;;;;5.48;64.16;96523.09;4910621;29;20733;-87
2023/10/08 10:43:33;;;;;;;5.68;1.70;;;;;;;5.93;65.72;96576.09;4906390;29;20039;-83
2023/10/08 10:49:16;;;;;;;6.65;1.85;;;;;;;5.70;66.17;96529.84;4880490;29;20425;-87
2023/10/08 10:51:42;;;;;;;8.77;2.10;;;;;;;5.95;66.55;96577.34;4912196;29;20043;-83
2023/10/08 10:54:19;;;;;;;6.13;2.27;;;;;;;5.83;69.17;96591.75;4893308;29;20651;-83
2023/10/08 10:56:47;;;;;;;2.25;1.65;;;;;;;5.45;68.10;96527.25;4920224;29;20295;-84
2023/10/08 10:59:26;;;;;;;4.90;2.33;;;;;;;5.43;69.17;96529.56;4916032;29;20058;-84
2023/10/08 11:02:05;;;;;;;3.20;1.60;;;;;;;5.48;70.75;96561.78;4881447;29;20040;-85
2023/10/08 11:04:33;;;;;;;7.07;2.17;;;;;;;5.65;70.93;96582.34;4918096;29;20051;-85
2023/10/08 11:07:01;;;;;;;4.38;2.20;;;;;;;5.20;71.47;96518.50;4900220;29;20093;-86
2023/10/08 11:09:38;;;;;;;3.38;1.70;;;;;;;5.73;72.30;96594.16;4900215;29;20056;-85
2023/10/08 11:12:13;;;;;;;4.40;2.00;;;;;;;5.83;72.53;96575.47;4901449;29;20079;-86
2023/10/08 11:14:56;;;;;;;4.20;1.80;;;;;;;5.65;72.23;96572.28;4904349;29;20048;-89
2023/10/08 11:17:29;;;;;;;3.70;1.80;;;;;;;5.57;72.09;96594.16;4893843;29;20041;-84
2023/10/08 11:19:57;;;;;;;5.25;2.20;;;;;;;5.35;73.41;96581.94;4918019;29;20055;-87
2023/10/08 11:22:44;;;;;;;1.83;1.38;;;;;;;5.15;72.33;96549.31;4914843;29;20052;-87
2023/10/08 11:25:30;;;;;;;3.22;1.40;;;;;;;5.14;73.60;96536.13;4882461;29;20040;-85
2023/10/08 11:28:18;;;;;;;1.83;1.47;;;;;;;5.40;73.39;96595.25;4905114;29;20039;-87
2023/10/08 11:30:46;;;;;;;11.27;1.60;;;;;;;5.00;73.91;96524.88;4878362;29;20041;-84
2023/10/08 11:33:15;;;;;;;5.95;1.70;;;;;;;4.90;74.03;96515.34;4892957;29;20051;-87
2023/10/08 11:36:06;;;;;;;5.05;1.48;;;;;;;5.38;73.14;96595.59;4909782;29;20066;-86
2023/10/08 11:38:41;;;;;;;3.22;1.80;;;;;;;5.22;75.03;96586.63;4903592;29;20060;-86
2023/10/08 11:41:20;;;;;;;1.20;1.10;;;;;;;4.75;74.79;96529.63;4896501;29;20108;-86
2023/10/08 11:43:56;;;;;;;1.73;1.17;;;;;;;4.89;73.63;96557.06;4885322;29;20131;-87
2023/10/08 11:46:44;;;;;;;2.47;1.50;;;;;;;5.05;74.42;96598.53;4900281;29;20053;-85
2023/10/08 11:49:36;;;;;;;;;;;;;;;5.12;75.28;96595.22;4901488;29;20870;-86
2023/10/08 11:52:03;;;;;;;3.92;1.65;;;;;;;4.57;74.65;96527.19;4897533;29;20372;-90
2023/10/08 11:54:32;;;;;;;2.92;1.75;;;;;;;4.56;75.24;96522.09;4914012;29;20039;-87
2023/10/08 11:57:02;;;;;;;5.65;1.90;;;;;;;4.50;76.09;96507.25;4916607;29;20051;-89
2023/10/08 11:59:32;;;;;;;2.42;1.60;;;;;;;4.90;76.50;96591.94;4916401;29;20234;-89
2023/10/08 12:01:58;;;;;;;7.43;2.30;;;;;;;5.59;84.02;96597.28;4906705;29;20632;-86
2023/10/08 12:04:29;;;;;;;7.10;1.90;;;;;;;6.03;81.97;96548.50;4889274;29;20047;-86
2023/10/08 12:06:55;;;;;;;4.00;1.80;;;;;;;6.29;80.35;96539.78;4899287;29;20075;-87
2023/10/08 12:09:27;;;;;;;3.47;1.92;;;;;;;5.95;72.90;96520.41;4898020;29;20066;-87
2023/10/08 12:11:56;;;;;;;3.25;1.73;;;;;;;6.40;80.55;96538.09;4911107;29;20044;-87
2023/10/08 12:14:30;;;;;;;2.00;1.50;;;;;;;6.53;74.46;96584.91;4893150;29;20020;-87
2023/10/08 12:17:11;;;;;;;6.28;1.58;;;;;;;6.03;71.71;96527.56;4902050;29;20048;-87
2023/10/08 12:19:40;;;;;;;5.85;1.58;;;;;;;6.05;73.43;96559.75;4899421;29;20050;-89
2023/10/08 12:22:08;;;;;;;4.93;1.67;;;;;;;6.22;71.17;96548.53;4882765;29;20044;-88
2023/10/08 12:24:38;;;;;;;2.15;1.63;;;;;;;6.49;72.16;96578.59;4901307;29;20096;-89
2023/10/08 12:27:07;;;;;;;2.95;1.70;;;;;;;6.69;73.37;96599.25;4848386;29;20048;-87
2023/10/08 12:29:38;;;;;;;6.55;2.22;;;;;;;6.28;69.96;96598.66;4892395;29;20115;-87
2023/10/08 12:32:27;;;;;;;10.02;2.60;;;;;;;5.91;71.60;96592.69;4880208;29;20052;-86
2023/10/08 12:34:55;;;;;;;9.15;2.20;;;;;;;5.29;73.29;96540.78;4831971;29;20105;-90
2023/10/08 12:37:22;;;;;;;4.22;2.30;;;;;;;5.57;74.17;96584.09;4826670;29;20053;-84
2023/10/08 12:40:11;;;;;;;2.92;1.73;;;;;;;5.40;73.86;96604.16;4842377;29;20049;-84
2023/10/08 12:42:44;;;;;;;3.80;2.08;;;;;;;5.03;74.79;96554.75;4844254;29;20049;-86
2023/10/08 12:45:12;;;;;;;8.07;1.50;;;;;;;5.03;74.85;96560.16;4837166;29;20056;-86
2023/10/08 12:47:42;;;;;;;6.05;1.83;;;;;;;5.17;75.37;96582.25;4862220;29;20432;-84
2023/10/08 12:50:08;;;;;;;4.15;1.60;;;;;;;5.00;75.30;96563.59;4853147;29;20470;-88
2023/10/08 12:52:55;;;;;;;2.90;1.63;;;;;;;5.04;75.65;96585.34;4828597;29;20085;-86
2023/10/08 12:55:25;;;;;;;1.98;1.38;;;;;;;5.00;75.68;96598.78;4827459;29;20053;-89
2023/10/08 12:57:55;;;;;;;1.70;1.20;;;;;;;4.74;76.42;96574.03;4857276;29;20503;-86
2023/10/08 13:00:29;;;;;;;1.48;1.20;;;;;;;4.83;76.46;96609.84;4835400;29;20089;-90
2023/10/08 13:03:01;;;;;;;3.45;1.60;;;;;;;4.60;77.32;96566.28;4844448;29;20038;-84
2023/10/08 13:05:30;;;;;;;2.55;1.52;;;;;;;4.53;77.21;96553.31;4827192;29;20061;-89
2023/10/08 13:08:09;;;;;;;2.60;1.50;;;;;;;4.69;77.15;96575.06;4823608;29;20046;-87
2023/10/08 13:10:41;;;;;;;3.63;1.30;;;;;;;4.70;76.89;96568.50;4858300;29;20048;-86
2023/10/08 13:13:10;;;;;;;2.65;1.40;;;;;;;4.75;76.91;96592.63;4873366;29;20120;-85
2023/10/08 13:15:39;;;;;;;12.40;1.60;;;;;;;4.49;76.97;96557.84;4894254;29;20218;-87
2023/10/08 13:18:05;;;;;;;6.50;2.53;;;;;;;4.41;77.23;96532.50;4861379;29;20047;-91
2023/10/08 13:20:34;;;;;;;6.93;3.05;;;;;;;4.87;77.60;96608.06;4866201;29;20080;-88
2023/10/08 13:23:02;;;;;;;5.20;2.35;;;;;;;4.72;77.64;96601.44;4813764;29;20503;-87
2023/10/08 13:25:39;;;;;;;5.88;1.80;;;;;;;4.66;77.68;96591.97;4818602;29;20060;-87
2023/10/08 13:28:07;;;;;;;3.53;1.77;;;;;;;4.73;76.98;96611.13;4838787;29;20063;-87
2023/10/08 13:30:37;;;;;;;5.40;1.60;;;;;;;4.27;77.31;96534.75;4809089;29;20564;-88
2023/10/08 13:33:08;;;;;;;5.53;1.80;;;;;;;4.76;77.44;96609.66;4796846;29;20145;-92
2023/10/08 13:35:35;;;;;;;2.10;1.33;;;;;;;4.40;78.13;96555.28;4802736;29;20089;-88
2023/10/08 13:38:09;;;;;;;3.15;1.73;;;;;;;4.43;77.55;96561.91;4823894;29;20092;-87
2023/10/08 13:40:39;;;;;;;3.88;2.10;;;;;;;4.55;77.21;96591.66;4779766;29;20054;-88
2023/10/08 13:43:06;;;;;;;3.03;1.67;;;;;;;4.53;77.82;96604.72;4808398;29;20043;-87
2023/10/08 13:45:37;;;;;;;3.83;1.90;;;;;;;4.17;78.04;96559.56;4810792;29;20939;-87
2023/10/08 13:48:05;;;;;;;2.65;1.67;;;;;;;4.39;78.12;96604.28;4835745;29;20049;-89
2023/10/08 13:50:31;;;;;;;4.30;1.75;;;;;;;4.29;78.83;96589.31;4811112;29;20051;-87
2023/10/08 13:53:01;;;;;;;4.78;2.17;;;;;;;4.38;78.95;96592.69;4784604;29;20050;-85
2023/10/08 13:55:29;;;;;;;7.13;2.47;;;;;;;4.32;79.07;96604.84;4823579;29;20038;-85
2023/10/08 13:57:57;;;;;;;2.53;1.40;;;;;;;4.28;78.12;96589.66;4842021;29;20443;-87
2023/10/08 14:00:25;;;;;;;8.20;1.70;;;;;;;4.11;78.80;96555.53;4881203;29;20427;-83
2023/10/08 14:02:52;;;;;;;1.25;0.93;;;;;;;3.70;78.30;96514.06;4909018;29;20547;-89
2023/10/08 14:05:24;;;;;;;1.10;1.00;;;;;;;4.25;78.29;96593.81;4921765;29;20040;-87
2023/10/08 14:07:53;;;;;;;2.22;1.33;;;;;;;4.06;79.47;96564.63;4907856;29;20047;-84
2023/10/08 14:10:19;;;;;;;1.20;1.00;;;;;;;3.80;78.03;96556.84;4907820;29;20044;-86
2023/10/08 14:12:49;;;;;;;2.00;1.03;;;;;;;4.16;78.44;96595.84;4921630;29;20109;-90
2023/10/08 14:15:18;;;;;;;6.78;1.70;;;;;;;3.83;79.02;96542.66;4906470;29;20108;-87
2023/10/08 14:17:53;;;;;;;2.30;1.30;;;;;;;4.11;78.82;96571.75;4922506;29;20071;-85
2023/10/08 14:20:22;;;;;;;2.95;1.67;;;;;;;3.94;78.95;96583.53;4915382;29;20405;-87
2023/10/08 14:22:57;;;;;;;1.25;0.90;;;;;;;3.48;79.24;96537.69;4922637;29;20071;-87
2023/10/08 14:25:28;;;;;;;3.20;1.58;;;;;;;3.95;79.27;96594.03;4907652;29;20040;-87
2023/10/08 14:28:04;;;;;;;1.90;1.27;;;;;;;3.45;79.46;96543.75;4904496;29;20065;-88
2023/10/08 14:30:40;;;;;;;2.00;1.20;;;;;;;3.38;80.21;96527.31;4903864;29;20137;-86
2023/10/08 14:33:24;;;;;;;1.33;1.13;;;;;;;3.85;80.19;96602.56;4901149;29;20040;-90
2023/10/08 14:44:40;;;;;;;1.20;1.08;;;;;;;3.67;80.17;96582.25;4840819;29;20050;-90
2023/10/08 14:47:08;;;;;;;2.70;1.52;;;;;;;3.63;80.63;96573.25;4865612;29;20083;-90
2023/10/08 14:49:35;;;;;;;1.67;1.17;;;;;;;3.69;80.45;96590.84;4865080;29;20515;-87
2023/10/08 14:52:04;;;;;;;3.45;1.98;;;;;;;3.64;80.54;96569.44;4849828;29;20049;-89
2023/10/08 14:54:30;;;;;;;2.72;1.50;;;;;;;3.53;81.10;96559.06;4826588;29;20038;-85
2023/10/08 14:56:59;;;;;;;1.73;1.27;;;;;;;3.79;79.94;96612.00;4863989;29;20470;-91
2023/10/08 14:59:28;;;;;;;2.50;1.63;;;;;;;3.50;80.04;96580.53;4841028;29;20053;-88
2023/10/08 15:01:55;;;;;;;1.65;1.38;;;;;;;3.60;80.52;96584.72;4859189;29;20045;-86
2023/10/08 15:04:28;;;;;;;2.08;1.17;;;;;;;3.72;80.23;96607.16;4850600;29;20052;-92
2023/10/08 15:06:58;;;;;;;1.83;1.30;;;;;;;3.27;79.90;96551.22;4844628;29;20049;-86
2023/10/08 15:09:26;;;;;;;3.15;1.83;;;;;;;3.32;80.46;96565.66;4850643;29;20053;-86
2023/10/08 15:11:53;;;;;;;2.38;1.63;;;;;;;3.53;80.51;96606.88;4881761;29;20047;-86
2023/10/08 15:14:24;;;;;;;3.70;1.85;;;;;;;3.49;81.08;96592.47;4892822;29;20035;-89
2023/10/08 15:17:05;;;;;;;3.45;1.60;;;;;;;3.04;80.54;96528.44;4897291;29;20084;-88
2023/10/08 15:19:31;;;;;;;1.67;1.25;;;;;;;3.38;80.23;96599.41;4886875;29;20044;-91
2023/10/08 15:21:58;;;;;;;2.90;1.60;;;;;;;3.56;80.65;96608.91;4910121;29;20060;-88
2023/10/08 15:24:25;;;;;;;6.13;1.50;;;;;;;3.41;80.61;96582.53;4918380;29;20096;-88
2023/10/08 15:26:52;;;;;;;;;;;;;;;3.62;80.83;96623.00;4910941;29;20040;-83
2023/10/08 15:29:25;;;;;;;2.88;1.48;;;;;;;3.58;80.75;96608.59;4910971;29;20420;-87
2023/10/08 15:31:54;;;;;;;2.03;1.50;;;;;;;3.37;81.46;96590.50;4914935;29;20036;-89
2023/10/08 15:34:23;;;;;;;3.75;1.70;;;;;;;3.17;81.09;96546.25;4908450;29;20071;-89
2023/10/08 15:36:49;;;;;;;;;;;;;;;3.67;80.45;96620.88;4912672;29;20044;-86
2023/10/08 15:39:24;;;;;;;3.10;1.77;;;;;;;3.28;80.79;96576.34;4905315;29;19969;-86
2023/10/08 15:41:53;;;;;;;3.22;1.67;;;;;;;3.61;80.67;96621.41;4915892;29;20072;-89
2023/10/08 15:44:22;;;;;;;3.20;1.98;;;;;;;3.49;81.01;96598.66;4906394;29;20096;-86
2023/10/08 15:46:49;;;;;;;2.60;1.85;;;;;;;3.24;80.73;96570.00;4912148;29;20043;-86
2023/10/08 15:49:19;;;;;;;3.40;1.90;;;;;;;3.22;80.79;96550.66;4911626;29;20052;-86
2023/10/08 15:51:51;;;;;;;3.25;1.83;;;;;;;3.59;80.43;96618.28;4901254;29;20043;-85
2023/10/08 15:54:20;;;;;;;3.40;1.90;;;;;;;3.69;80.16;96628.66;4918944;29;20044;-85
2023/10/08 15:56:49;;;;;;;5.30;1.88;;;;;;;3.58;80.50;96614.78;4916092;29;20052;-90
2023/10/08 15:59:19;;;;;;;4.65;2.67;;;;;;;3.20;81.58;96536.69;4922102;29;20048;-90
2023/10/08 16:02:01;;;;;;;4.25;1.90;;;;;;;3.13;80.28;96520.25;4890313;29;20037;-86
2023/10/08 16:04:28;;;;;;;3.40;1.70;;;;;;;3.60;80.74;96579.31;4891398;29;20049;-90
2023/10/08 16:06:54;;;;;;;5.95;1.60;;;;;;;3.29;80.36;96548.22;4878869;29;20051;-89
2023/10/08 16:09:21;;;;;;;;;;;;;;;3.73;80.46;96627.63;4907434;29;20048;-89
2023/10/08 16:11:48;;;;;;;2.78;1.70;;;;;;;3.59;80.56;96599.38;4892931;29;19923;-90
2023/10/08 16:14:40;;;;;;;4.32;2.10;;;;;;;3.79;80.09;96625.53;4894034;29;20131;-90
2023/10/08 16:17:11;;;;;;;2.65;1.67;;;;;;;3.48;79.82;96577.41;4938358;23;20052;-91
2023/10/08 16:19:40;;;;;;;1.95;1.67;;;;;;;3.54;79.88;96586.84;4909787;29;20097;-86
2023/10/08 16:22:16;;;;;;;;;;;;;;;3.80;79.77;96621.69;4914151;29;20044;-89
2023/10/08 16:24:42;;;;;;;2.75;1.58;;;;;;;3.55;80.16;96603.84;4879146;29;19923;-90
2023/10/08 16:27:09;;;;;;;2.60;1.63;;;;;;;3.29;79.11;96559.00;4885243;29;20447;-92
2023/10/08 16:29:36;;;;;;;2.17;1.50;;;;;;;3.09;79.05;96532.84;4868634;29;20050;-88
2023/10/08 16:32:06;;;;;;;;;;;;;;;3.76;79.66;96639.69;4878725;29;20064;-90
2023/10/08 16:34:34;;;;;;;4.45;1.70;;;;;;;3.50;79.37;96611.03;4891977;29;19924;-88
2023/10/08 16:37:01;;;;;;;4.03;1.50;;;;;;;3.63;80.28;96636.16;4914039;29;20050;-90
2023/10/08 16:39:27;;;;;;;;;;;;;;;3.71;79.77;96635.31;4914622;23;20056;-89
2023/10/08 16:41:53;;;;;;;6.33;1.77;;;;;;;3.34;79.91;96576.88;4893066;29;19916;-89
2023/10/08 16:44:21;;;;;;;2.08;1.30;;;;;;;3.71;79.08;96623.72;4875052;29;20037;-89
2023/10/08 16:46:49;;;;;;;3.00;1.52;;;;;;;3.37;79.54;96579.72;4866414;29;20043;-90
2023/10/08 16:49:17;;;;;;;2.92;1.40;;;;;;;3.72;79.15;96650.38;4858930;29;20033;-90
2023/10/08 16:51:43;;;;;;;3.75;1.42;;;;;;;3.75;79.06;96640.81;4866519;29;20055;-92
2023/10/08 16:54:14;;;;;;;2.38;1.48;;;;;;;3.61;79.57;96637.63;4854891;29;20049;-88
2023/10/08 16:56:43;;;;;;;2.45;1.60;;;;;;;3.52;79.99;96616.13;4878665;29;20052;-88
2023/10/08 16:59:13;;;;;;;1.83;1.40;;;;;;;3.55;79.65;96620.06;4842252;29;20040;-89
2023/10/08 17:01:43;;;;;;;0.90;0.90;;;;;;;3.41;78.20;96588.75;4842295;29;20084;-91
2023/10/08 17:07:38;;;;;;;2.50;1.40;;;;;;;3.08;78.70;96550.97;4880080;29;20085;-91
2023/10/08 17:10:07;;;;;;;2.20;1.30;;;;;;;3.13;79.20;96566.94;4889336;29;20041;-92
2023/10/08 17:12:33;;;;;;;1.30;1.20;;;;;;;3.20;79.67;96582.59;4851628;29;20042;-93
2023/10/08 17:15:05;;;;;;;1.00;1.00;;;;;;;3.44;78.48;96625.06;4858738;29;20078;-92
2023/10/08 17:17:32;;;;;;;1.75;1.20;;;;;;;3.18;79.47;96590.22;4866438;29;20070;-90
2023/10/08 17:20:39;;;;;;;1.20;1.00;;;;;;;3.18;78.92;96582.94;4861662;29;20049;-92
2023/10/08 17:23:39;;;;;;;4.25;1.70;;;;;;;3.68;79.53;96659.50;4882087;29;20049;-91
2023/10/08 17:26:10;;;;;;;1.30;1.13;;;;;;;3.21;79.92;96584.16;4868279;29;20058;-93
2023/10/08 17:29:06;;;;;;;2.00;1.30;;;;;;;3.44;79.81;96616.97;4839926;29;20058;-92
2023/10/08 17:31:53;;;;;;;2.65;1.60;;;;;;;3.68;79.67;96662.97;4810638;29;20152;-92
2023/10/08 17:34:54;;;;;;;2.25;1.55;;;;;;;2.95;80.17;96546.63;4800850;29;20666;-94
2023/10/08 17:37:37;;;;;;;0.90;0.90;;;;;;;3.65;78.69;96665.56;4828681;29;20079;-91
2023/10/08 17:40:08;;;;;;;1.95;1.40;;;;;;;2.95;79.19;96555.50;4936678;29;20031;-92
2023/10/08 17:42:35;;;;;;;1.25;1.10;;;;;;;3.52;79.44;96652.00;4918395;29;20103;-92
2023/10/08 17:45:13;;;;;;;1.45;1.20;;;;;;;3.38;79.83;96640.72;4903640;29;20056;-93
2023/10/08 17:47:43;;;;;;;1.83;1.30;;;;;;;3.08;80.05;96596.03;4918704;29;20051;-92
2023/10/08 17:50:11;;;;;;;2.63;1.55;;;;;;;3.46;80.09;96658.72;4908580;29;20505;-91
2023/10/08 17:52:37;;;;;;;2.10;1.30;;;;;;;3.23;79.60;96611.63;4892639;24;20097;-91
2023/10/08 17:55:12;;;;;;;1.90;1.33;;;;;;;3.37;79.33;96633.72;4916116;29;20049;-92
2023/10/08 17:57:42;;;;;;;2.53;1.30;;;;;;;3.62;79.24;96674.31;4916764;23;20052;-92
2023/10/08 18:12:30;;;;;;;4.68;1.48;;;;;;;3.24;79.51;96640.97;4868223;23;20041;-91
2023/10/08 18:18:01;;;;;;;2.40;1.27;;;;;;;2.75;79.41;96567.91;4882157;29;20041;-94
2023/10/08 18:21:32;;;;;;;1.65;1.25;;;;;;;3.51;79.21;96682.06;4897081;29;20178;-91
2023/10/08 18:24:49;;;;;;;6.18;1.67;;;;;;;3.45;79.61;96683.38;4894357;23;20048;-90
2023/10/08 18:27:16;;;;;;;1.15;1.00;;;;;;;2.88;79.56;96613.78;4870519;29;20061;-90
2023/10/08 18:29:43;;;;;;;2.00;1.20;;;;;;;3.36;79.66;96702.34;4891273;29;20041;-89
2023/10/08 18:32:11;;;;;;;2.25;1.17;;;;;;;3.10;80.21;96651.25;4872088;29;20074;-91
2023/10/08 18:34:52;;;;;;;1.75;1.23;;;;;;;3.09;80.43;96655.06;4850492;29;20014;-93
2023/10/08 18:37:45;;;;;;;2.85;1.25;;;;;;;3.39;80.43;96698.19;4819010;29;20053;-91
2023/10/08 18:40:13;;;;;;;3.67;1.40;;;;;;;3.13;79.86;96650.59;5037298;23;20056;-93
2023/10/08 18:42:46;;;;;;;2.30;1.15;;;;;;;2.56;80.02;96575.66;4919256;29;20047;-91
2023/10/08 18:46:09;;;;;;;1.23;1.13;;;;;;;2.68;80.16;96599.19;4848868;29;20038;-94
2023/10/08 18:51:56;;;;;;;4.47;1.10;;;;;;;2.51;80.62;96583.91;5050695;23;20052;-93
2023/10/08 18:57:35;;;;;;;3.83;1.25;;;;;;;2.82;80.67;96632.09;4954473;23;20053;-92
2023/10/08 19:00:10;;;;;;;1.10;0.93;;;;;;;2.51;80.59;96586.59;4898518;29;20048;-91
2023/10/08 19:02:40;;;;;;;2.00;1.40;;;;;;;2.96;80.90;96650.72;4890798;29;20064;-92
2023/10/08 19:05:08;;;;;;;3.53;1.23;;;;;;;2.86;80.89;96643.81;5201560;23;20040;-90
2023/10/08 19:08:04;;;;;;;1.08;0.90;;;;;;;3.34;80.85;96706.47;4887889;29;20064;-90
2023/10/08 19:10:33;;;;;;;1.63;1.20;;;;;;;2.76;80.86;96631.50;4897052;29;20041;-94
2023/10/08 19:13:00;;;;;;;2.05;1.10;;;;;;;3.20;80.84;96699.44;4864144;29;20048;-87
2023/10/08 19:15:28;;;;;;;5.15;1.35;;;;;;;3.01;81.53;96661.31;4876495;29;20048;-87
2023/10/08 19:17:56;;;;;;;8.27;1.52;;;;;;;3.25;81.05;96693.06;4880326;29;20048;-86
2023/10/08 19:20:23;;;;;;;1.38;1.15;;;;;;;3.37;80.58;96728.22;4878430;29;20044;-87
2023/10/08 19:25:47;;;;;;;0.80;0.80;;;;;;;3.30;81.08;96714.44;4866567;29;20054;-90
2023/10/08 19:28:15;;;;;;;4.43;0.90;;;;;;;2.87;80.97;96664.25;4848741;29;20503;-87
2023/10/08 19:30:45;;;;;;;1.65;1.20;;;;;;;3.39;80.83;96728.69;4844010;29;20046;-88
2023/10/08 19:33:15;;;;;;;1.75;1.20;;;;;;;3.20;80.41;96701.34;4829778;29;20096;-93
2023/10/08 19:36:08;;;;;;;3.65;1.70;;;;;;;2.93;80.19;96664.88;4910320;23;20084;-93